createdAt,value
2023-05-12T00:01:17.030Z,13.88
2023-05-12T00:04:19.622Z,13.81
2023-05-12T00:07:22.587Z,13.75
2023-05-12T00:10:27.464Z,13.70
2023-05-12T00:13:30.264Z,13.65
2023-05-12T00:16:33.108Z,13.61
2023-05-12T00:19:36.676Z,13.55
2023-05-12T00:22:40.276Z,13.49
2023-05-12T00:25:42.937Z,13.44
2023-05-12T00:28:47.616Z,13.38
2023-05-12T00:31:50.301Z,13.33
2023-05-12T00:34:54.506Z,13.29
2023-05-12T00:37:57.225Z,13.24
2023-05-12T00:40:59.876Z,13.21
2023-05-12T00:44:02.448Z,13.16
2023-05-12T00:47:05.277Z,13.12
2023-05-12T00:50:08.694Z,13.09
2023-05-12T00:53:12.992Z,13.05
2023-05-12T00:56:17.965Z,13.00
2023-05-12T00:59:20.762Z,12.96
2023-05-12T01:02:23.984Z,12.93
2023-05-12T01:05:32.112Z,12.89
2023-05-12T01:08:35.198Z,12.87
2023-05-12T01:11:38.098Z,12.83
2023-05-12T01:14:41.556Z,12.79
2023-05-12T01:17:53.891Z,12.75
2023-05-12T01:20:57.311Z,12.72
2023-05-12T01:24:06.530Z,12.69
2023-05-12T01:27:10.118Z,12.67
2023-05-12T01:30:16.616Z,12.62
2023-05-12T01:33:19.350Z,12.58
2023-05-12T01:36:21.896Z,12.56
2023-05-12T01:39:24.466Z,12.53
2023-05-12T01:42:27.031Z,12.50
2023-05-12T01:45:29.687Z,12.46
2023-05-12T01:48:32.357Z,12.44
2023-05-12T01:51:34.918Z,12.42
2023-05-12T01:54:37.457Z,12.40
2023-05-12T01:57:40.040Z,12.38
2023-05-12T02:00:42.648Z,12.36
2023-05-12T02:03:45.224Z,12.34
2023-05-12T02:06:47.800Z,12.33
2023-05-12T02:09:51.131Z,12.31
2023-05-12T02:12:53.751Z,12.29
2023-05-12T02:15:56.279Z,12.26
2023-05-12T02:18:58.935Z,12.24
2023-05-12T02:22:01.773Z,12.23
2023-05-12T02:25:04.956Z,12.21
2023-05-12T02:28:10.967Z,12.19
2023-05-12T02:31:13.743Z,12.17
2023-05-12T02:34:16.338Z,12.15
2023-05-12T02:37:19.004Z,12.13
2023-05-12T02:40:21.669Z,12.10
2023-05-12T02:43:24.533Z,12.08
2023-05-12T02:46:27.316Z,12.05
2023-05-12T02:49:30.466Z,12.03
2023-05-12T02:52:32.990Z,12.00
2023-05-12T02:55:35.692Z,11.97
2023-05-12T02:58:38.377Z,11.94
2023-05-12T03:01:41.113Z,11.91
2023-05-12T03:04:43.798Z,11.89
2023-05-12T03:07:48.727Z,11.88
2023-05-12T03:10:51.421Z,11.87
2023-05-12T03:13:54.130Z,11.86
2023-05-12T03:16:57.302Z,11.84
2023-05-12T03:20:00.108Z,11.83
2023-05-12T03:23:03.986Z,11.81
2023-05-12T03:26:06.653Z,11.81
2023-05-12T03:29:09.314Z,11.83
2023-05-12T03:32:11.876Z,11.84
2023-05-12T03:35:14.539Z,11.85
2023-05-12T03:38:17.099Z,11.86
2023-05-12T03:41:19.703Z,11.86
2023-05-12T03:44:22.342Z,11.84
2023-05-12T03:50:27.666Z,11.85
2023-05-12T03:53:30.438Z,11.83
2023-05-12T03:56:33.310Z,11.78
2023-05-12T03:59:35.893Z,11.73
2023-05-12T04:02:38.987Z,11.70
2023-05-12T04:05:42.822Z,11.68
2023-05-12T04:08:45.595Z,11.64
2023-05-12T04:11:48.267Z,11.60
2023-05-12T04:14:51.238Z,11.55
2023-05-12T04:17:53.870Z,11.53
2023-05-12T04:20:56.977Z,11.52
2023-05-12T04:23:59.585Z,11.50
2023-05-12T04:27:02.205Z,11.47
2023-05-12T04:30:05.330Z,11.47
2023-05-12T04:33:08.886Z,11.47
2023-05-12T04:36:13.790Z,11.47
2023-05-12T04:39:16.383Z,11.46
2023-05-12T04:42:19.115Z,11.47
2023-05-12T04:45:22.170Z,11.49
2023-05-12T04:48:25.163Z,11.53
2023-05-12T04:51:27.830Z,11.56
2023-05-12T04:54:39.084Z,11.59
2023-05-12T04:57:41.755Z,11.62
2023-05-12T05:00:44.610Z,11.66
2023-05-12T05:03:47.489Z,11.71
2023-05-12T05:06:50.363Z,11.78
2023-05-12T05:09:52.949Z,11.85
2023-05-12T05:12:55.486Z,11.90
2023-05-12T05:15:58.092Z,11.96
2023-05-12T05:19:05.733Z,12.01
2023-05-12T05:22:09.791Z,12.09
2023-05-12T05:25:13.875Z,12.15
2023-05-12T05:28:17.308Z,12.22
2023-05-12T05:31:19.990Z,12.26
2023-05-12T05:34:22.981Z,12.32
2023-05-12T05:37:25.793Z,12.34
2023-05-12T05:40:30.582Z,12.43
2023-05-12T05:43:36.673Z,12.48
2023-05-12T05:46:39.282Z,12.52
2023-05-12T05:49:42.297Z,12.58
2023-05-12T05:52:44.867Z,12.62
2023-05-12T05:55:48.869Z,12.68
2023-05-12T05:58:51.543Z,12.74
2023-05-12T06:01:54.135Z,12.79
2023-05-12T06:04:56.846Z,12.86
2023-05-12T06:07:59.387Z,12.91
2023-05-12T06:11:01.980Z,12.98
2023-05-12T06:14:04.758Z,13.03
2023-05-12T06:17:07.514Z,13.08
2023-05-12T06:20:10.701Z,13.10
2023-05-12T06:23:13.346Z,13.18
2023-05-12T06:26:16.047Z,13.25
2023-05-12T06:29:19.919Z,13.31
2023-05-12T06:32:22.562Z,13.36
2023-05-12T06:35:25.256Z,13.42
2023-05-12T06:38:27.835Z,13.47
2023-05-12T06:41:30.821Z,13.55
2023-05-12T06:44:33.422Z,13.59
2023-05-12T06:47:36.055Z,13.64
2023-05-12T06:50:38.901Z,13.68
2023-05-12T06:53:41.570Z,13.71
2023-05-12T06:56:44.231Z,13.74
2023-05-12T06:59:46.802Z,13.75
2023-05-12T07:02:49.789Z,13.79
2023-05-12T07:05:52.505Z,13.92
2023-05-12T07:08:55.982Z,14.04
2023-05-12T07:11:59.286Z,14.17
2023-05-12T07:15:01.874Z,14.24
2023-05-12T07:18:04.609Z,14.33
2023-05-12T07:21:07.856Z,14.45
2023-05-12T07:24:10.455Z,14.54
2023-05-12T07:27:13.142Z,14.60
2023-05-12T07:30:16.501Z,14.66
2023-05-12T07:33:18.989Z,14.73
2023-05-12T07:36:22.091Z,14.85
2023-05-12T07:39:25.258Z,14.97
2023-05-12T07:42:28.037Z,14.94
2023-05-12T07:45:30.752Z,15.08
2023-05-12T07:48:40.012Z,15.15
2023-05-12T07:51:44.171Z,15.26
2023-05-12T07:54:46.936Z,15.34
2023-05-12T07:57:49.727Z,15.45
2023-05-12T08:00:54.557Z,15.55
2023-05-12T08:03:57.282Z,15.63
2023-05-12T08:06:59.939Z,15.71
2023-05-12T08:10:04.201Z,15.82
2023-05-12T08:13:06.767Z,15.90
2023-05-12T08:16:09.490Z,15.93
2023-05-12T08:19:13.118Z,16.00
2023-05-12T08:22:16.450Z,16.09
2023-05-12T08:25:19.384Z,16.16
2023-05-12T08:28:22.184Z,16.22
2023-05-12T08:31:24.882Z,16.20
2023-05-12T08:34:28.107Z,16.25
2023-05-12T08:37:33.717Z,16.28
2023-05-12T08:40:54.133Z,16.31
2023-05-12T08:43:57.314Z,16.35
2023-05-12T08:47:01.473Z,16.44
2023-05-12T08:50:05.605Z,16.56
2023-05-12T08:53:12.261Z,16.66
2023-05-12T08:59:26.256Z,16.83
2023-05-12T09:02:38.013Z,16.89
2023-05-12T09:05:47.793Z,16.97
2023-05-12T09:08:51.390Z,17.09
2023-05-12T09:11:57.596Z,17.20
2023-05-12T09:15:12.109Z,17.29
2023-05-12T09:18:16.219Z,17.38
2023-05-12T09:21:19.919Z,17.45
2023-05-12T09:24:35.085Z,17.55
2023-05-12T09:27:37.712Z,17.63
2023-05-12T09:30:42.543Z,17.72
2023-05-12T09:33:45.490Z,17.81
2023-05-12T09:37:02.582Z,17.92
2023-05-12T09:40:07.669Z,18.04
2023-05-12T09:43:12.438Z,18.11
2023-05-12T09:46:16.484Z,18.18
2023-05-12T09:49:27.237Z,18.26
2023-05-12T09:52:33.049Z,18.37
2023-05-12T09:55:35.722Z,18.47
2023-05-12T09:58:43.094Z,18.51
2023-05-12T10:01:45.792Z,18.56
2023-05-12T10:05:01.281Z,18.68
2023-05-12T10:08:08.400Z,18.77
2023-05-12T10:11:11.999Z,18.84
2023-05-12T10:14:15.658Z,18.90
2023-05-12T10:17:20.584Z,18.93
2023-05-12T10:20:23.462Z,19.00
2023-05-12T10:23:27.658Z,19.09
2023-05-12T10:26:32.506Z,19.19
2023-05-12T10:29:37.773Z,19.27
2023-05-12T10:32:40.625Z,19.37
2023-05-12T10:35:44.226Z,19.46
2023-05-12T10:38:50.387Z,19.55
2023-05-12T10:42:01.750Z,19.67
2023-05-12T10:45:17.092Z,19.82
2023-05-12T10:48:19.786Z,19.93
2023-05-12T10:51:28.602Z,19.97
2023-05-12T10:54:46.801Z,19.96
2023-05-12T10:57:54.024Z,20.04
2023-05-12T11:01:05.995Z,20.13
2023-05-12T11:04:17.395Z,20.28
2023-05-12T11:07:22.587Z,20.40
2023-05-12T11:10:26.529Z,20.55
2023-05-12T11:13:30.530Z,20.65
2023-05-12T11:16:33.192Z,20.76
2023-05-12T11:19:37.178Z,20.91
2023-05-12T11:22:41.179Z,21.04
2023-05-12T11:25:44.780Z,21.17
2023-05-12T11:28:47.834Z,21.35
2023-05-12T11:31:51.755Z,21.48
2023-05-12T11:34:54.721Z,21.61
2023-05-12T11:37:57.267Z,21.65
2023-05-12T11:40:59.833Z,21.68
2023-05-12T11:44:16.720Z,21.57
2023-05-12T11:47:20.148Z,21.52
2023-05-12T11:50:24.571Z,21.44
2023-05-12T11:53:27.755Z,21.40
2023-05-12T11:56:30.644Z,21.46
2023-05-12T11:59:34.856Z,21.74
2023-05-12T12:02:39.842Z,21.77
2023-05-12T12:05:46.565Z,21.94
2023-05-12T12:08:53.085Z,22.05
2023-05-12T12:11:56.142Z,21.95
2023-05-12T12:15:00.491Z,21.87
2023-05-12T12:18:03.267Z,21.88
2023-05-12T12:21:06.024Z,21.93
2023-05-12T12:24:08.610Z,21.83
2023-05-12T12:27:11.226Z,21.78
2023-05-12T12:30:17.154Z,21.64
2023-05-12T12:33:21.365Z,21.38
2023-05-12T12:36:24.137Z,21.32
2023-05-12T12:39:27.203Z,21.69
2023-05-12T12:42:30.088Z,22.12
2023-05-12T12:45:33.061Z,22.39
2023-05-12T12:48:35.651Z,22.35
2023-05-12T12:51:45.642Z,22.26
2023-05-12T12:54:49.540Z,22.15
2023-05-12T12:57:52.100Z,22.01
2023-05-12T13:00:54.691Z,21.92
2023-05-12T13:03:57.565Z,21.90
2023-05-12T13:07:00.396Z,21.91
2023-05-12T13:10:04.056Z,21.94
2023-05-12T13:13:07.317Z,22.08
2023-05-12T13:16:09.932Z,22.28
2023-05-12T13:19:12.634Z,22.27
2023-05-12T13:22:15.465Z,22.08
2023-05-12T13:25:18.310Z,21.78
2023-05-12T13:28:21.216Z,21.55
2023-05-12T13:31:24.001Z,21.61
2023-05-12T13:34:26.824Z,21.97
2023-05-12T13:37:29.477Z,22.36
2023-05-12T13:40:32.478Z,22.30
2023-05-12T13:43:35.041Z,22.09
2023-05-12T13:46:37.698Z,21.85
2023-05-12T13:49:40.356Z,21.65
2023-05-12T13:52:43.233Z,21.53
2023-05-12T13:55:45.919Z,21.45
2023-05-12T13:58:48.579Z,21.48
2023-05-12T14:01:51.280Z,21.57
2023-05-12T14:04:53.953Z,21.90
2023-05-12T14:07:56.987Z,22.29
2023-05-12T14:10:59.758Z,22.59
2023-05-12T14:14:03.638Z,22.67
2023-05-12T14:17:06.499Z,22.51
2023-05-12T14:20:09.664Z,22.25
2023-05-12T14:23:12.526Z,22.09
2023-05-12T14:26:15.422Z,21.98
2023-05-12T14:29:17.922Z,21.88
2023-05-12T14:32:20.562Z,21.84
2023-05-12T14:35:27.700Z,22.07
2023-05-12T14:38:30.592Z,22.59
2023-05-12T14:41:33.178Z,23.12
2023-05-12T14:44:35.813Z,23.34
2023-05-12T14:47:38.433Z,23.19
2023-05-12T14:50:43.710Z,22.90
2023-05-12T14:53:46.279Z,22.89
2023-05-12T14:56:48.787Z,23.22
2023-05-12T14:59:54.440Z,23.59
2023-05-12T15:02:57.185Z,23.95
2023-05-12T15:09:05.745Z,24.85
2023-05-12T15:12:08.916Z,25.15
2023-05-12T15:15:12.231Z,25.23
2023-05-12T15:18:14.957Z,25.02
2023-05-12T15:21:17.729Z,24.80
2023-05-12T15:24:20.796Z,24.70
2023-05-12T15:27:23.817Z,24.91
2023-05-12T15:30:26.454Z,25.18
2023-05-12T15:33:30.440Z,25.42
2023-05-12T15:36:34.169Z,25.49
2023-05-12T15:39:36.912Z,25.46
2023-05-12T15:42:40.589Z,25.52
2023-05-12T15:45:43.155Z,25.44
2023-05-12T15:48:49.084Z,25.32
2023-05-12T15:51:51.654Z,25.43
2023-05-12T15:54:54.390Z,25.45
2023-05-12T15:57:57.498Z,25.29
2023-05-12T16:01:00.417Z,25.17
2023-05-12T16:04:03.416Z,25.27
2023-05-12T16:07:06.405Z,25.48
2023-05-12T16:10:09.618Z,25.45
2023-05-12T16:13:12.353Z,25.33
2023-05-12T16:16:14.990Z,25.36
2023-05-12T16:19:18.180Z,25.53
2023-05-12T16:22:21.065Z,25.63
2023-05-12T16:25:23.980Z,25.65
2023-05-12T16:28:27.118Z,25.72
2023-05-12T16:31:31.296Z,25.77
2023-05-12T16:34:33.982Z,25.63
2023-05-12T16:37:36.947Z,25.35
2023-05-12T16:40:40.053Z,25.15
2023-05-12T16:43:42.722Z,24.90
2023-05-12T16:46:45.414Z,24.64
2023-05-12T16:49:53.432Z,24.24
2023-05-12T16:52:56.336Z,23.88
2023-05-12T16:55:59.554Z,23.57
2023-05-12T16:59:02.152Z,23.28
2023-05-12T17:02:05.269Z,22.90
2023-05-12T17:05:08.500Z,22.63
2023-05-12T17:08:11.402Z,22.53
2023-05-12T17:11:14.063Z,22.70
2023-05-12T17:14:17.894Z,22.91
2023-05-12T17:17:21.836Z,23.06
2023-05-12T17:20:24.497Z,23.14
2023-05-12T17:23:28.298Z,23.06
2023-05-12T17:26:31.175Z,22.89
2023-05-12T17:29:34.144Z,22.71
2023-05-12T17:32:36.718Z,22.74
2023-05-12T17:35:39.544Z,22.77
2023-05-12T17:38:42.263Z,22.85
2023-05-12T17:41:44.889Z,22.85
2023-05-12T17:44:47.651Z,22.80
2023-05-12T17:47:50.880Z,22.80
2023-05-12T17:50:53.603Z,22.71
2023-05-12T17:53:56.699Z,22.61
2023-05-12T17:56:59.454Z,22.52
2023-05-12T18:00:06.500Z,22.45
2023-05-12T18:03:09.336Z,22.34
2023-05-12T18:06:12.961Z,22.25
2023-05-12T18:09:17.759Z,22.15
2023-05-12T18:12:20.855Z,22.03
2023-05-12T18:15:24.622Z,21.90
2023-05-12T18:18:27.273Z,21.77
2023-05-12T18:21:30.086Z,21.62
2023-05-12T18:24:32.712Z,21.40
2023-05-12T18:27:36.120Z,21.18
2023-05-12T18:30:38.953Z,21.01
2023-05-12T18:33:41.689Z,20.84
2023-05-12T18:36:44.546Z,20.68
2023-05-12T18:39:47.170Z,20.55
2023-05-12T18:42:50.891Z,20.41
2023-05-12T18:45:53.558Z,20.25
2023-05-12T18:48:56.208Z,20.17
2023-05-12T18:51:58.893Z,20.06
2023-05-12T18:55:01.457Z,19.96
2023-05-12T18:58:03.977Z,19.87
2023-05-12T19:01:06.951Z,19.78
2023-05-12T19:04:10.021Z,19.70
2023-05-12T19:07:15.514Z,19.61
2023-05-12T19:10:18.241Z,19.55
2023-05-12T19:13:20.893Z,19.48
2023-05-12T19:16:26.466Z,19.42
2023-05-12T19:19:29.423Z,19.36
2023-05-12T19:22:32.189Z,19.30
2023-05-12T19:25:35.583Z,19.23
2023-05-12T19:28:38.346Z,19.18
2023-05-12T19:31:41.156Z,19.14
2023-05-12T19:34:44.802Z,19.08
2023-05-12T19:37:47.365Z,19.01
2023-05-12T19:40:49.906Z,18.95
2023-05-12T19:43:52.471Z,18.87
2023-05-12T19:46:55.327Z,18.80
2023-05-12T19:49:57.918Z,18.74
2023-05-12T19:53:00.690Z,18.68
2023-05-12T19:56:03.376Z,18.61
2023-05-12T19:59:05.936Z,18.56
2023-05-12T20:02:14.985Z,18.51
2023-05-12T20:05:17.929Z,18.44
2023-05-12T20:08:20.767Z,18.41
2023-05-12T20:11:23.445Z,18.35
2023-05-12T20:14:26.000Z,18.31
2023-05-12T20:17:28.617Z,18.26
2023-05-12T20:20:31.590Z,18.21
2023-05-12T20:23:34.303Z,18.16
2023-05-12T20:26:37.034Z,18.10
2023-05-12T20:29:39.730Z,18.04
2023-05-12T20:32:43.712Z,17.98
2023-05-12T20:35:46.598Z,17.91
2023-05-12T20:38:49.094Z,17.84
2023-05-12T20:41:51.658Z,17.77
2023-05-12T20:44:54.352Z,17.74
2023-05-12T20:47:57.169Z,17.70
2023-05-12T20:51:09.285Z,17.64
2023-05-12T20:54:11.907Z,17.56
2023-05-12T20:57:14.492Z,17.50
2023-05-12T21:00:18.461Z,17.43
2023-05-12T21:03:22.880Z,17.37
2023-05-12T21:06:25.779Z,17.31
2023-05-12T21:09:28.656Z,17.25
2023-05-12T21:12:31.885Z,17.20
2023-05-12T21:15:34.795Z,17.15
2023-05-12T21:18:37.496Z,17.08
2023-05-12T21:21:40.081Z,17.02
2023-05-12T21:24:43.131Z,16.96
2023-05-12T21:27:47.521Z,16.92
2023-05-12T21:30:50.219Z,16.87
2023-05-12T21:33:52.783Z,16.79
2023-05-12T21:36:56.552Z,16.70
2023-05-12T21:39:59.243Z,16.66
2023-05-12T21:43:02.029Z,16.61
2023-05-12T21:46:05.804Z,16.56
2023-05-12T21:49:08.771Z,16.52
2023-05-12T21:52:12.366Z,16.46
2023-05-12T21:55:15.326Z,16.42
2023-05-12T21:58:18.427Z,16.37
2023-05-12T22:01:21.110Z,16.32
2023-05-12T22:04:23.640Z,16.29
2023-05-12T22:07:26.424Z,16.27
2023-05-12T22:10:31.700Z,16.22
2023-05-12T22:13:34.432Z,16.14
2023-05-12T22:16:41.808Z,16.05
2023-05-12T22:19:45.156Z,16.01
2023-05-12T22:22:47.699Z,15.98
2023-05-12T22:25:50.759Z,15.93
2023-05-12T22:28:53.349Z,15.87
2023-05-12T22:31:55.869Z,15.82
2023-05-12T22:34:58.785Z,15.78
2023-05-12T22:38:01.554Z,15.74
2023-05-12T22:41:04.173Z,15.69
2023-05-12T22:44:06.779Z,15.65
2023-05-12T22:51:07.676Z,15.54
2023-05-12T22:54:10.170Z,15.49
2023-05-12T22:57:13.792Z,15.44
2023-05-12T23:00:16.588Z,15.41
2023-05-12T23:03:19.171Z,15.36
2023-05-12T23:06:21.712Z,15.32
2023-05-12T23:09:24.281Z,15.29
2023-05-12T23:12:27.048Z,15.24
2023-05-12T23:15:29.721Z,15.19
2023-05-12T23:18:32.718Z,15.16
2023-05-12T23:21:37.395Z,15.11
2023-05-12T23:24:40.896Z,15.07
2023-05-12T23:27:43.459Z,15.02
2023-05-12T23:30:46.331Z,14.99
2023-05-12T23:33:49.055Z,14.95
2023-05-12T23:36:51.748Z,14.93
2023-05-12T23:39:56.470Z,14.89
2023-05-12T23:42:59.430Z,14.80
2023-05-12T23:46:02.229Z,14.79
2023-05-12T23:49:04.908Z,14.75
2023-05-12T23:52:07.849Z,14.72
2023-05-12T23:55:11.860Z,14.70
2023-05-12T23:58:14.549Z,14.67
